Time;durP1;ratioP1;P1;durP2;ratioP2;P2;SDS_P1;SDS_P2;PMS_P1;PMS_P2;Temp;Humidity;BMP_temperature;BMP_pressure;BME280_temperature;BME280_humidity;BME280_pressure;Samples;Min_cycle;Max_cycle;Signal;HPM_P1;HPM_P2
2021/03/01 00:00:25;;;;;;;15.35;10.10;;;;;;;4.61;65.96;101314.27;1655833;85;21763;-52
2021/03/01 00:03:30;;;;;;;17.12;11.63;;;;;;;4.61;65.74;101315.63;1655083;85;21271;-51
2021/03/01 00:06:36;;;;;;;16.55;11.10;;;;;;;4.60;65.83;101309.81;1662219;83;21259;-50
2021/03/01 00:09:42;;;;;;;15.18;10.68;;;;;;;4.59;66.04;101308.97;1675593;85;21283;-51
2021/03/01 00:12:47;;;;;;;17.80;12.82;;;;;;;4.56;66.18;101307.84;1675080;84;21258;-50
2021/03/01 00:15:52;;;;;;;15.88;12.07;;;;;;;4.56;66.26;101315.98;1675768;85;21302;-50
2021/03/01 00:18:58;;;;;;;27.48;13.90;;;;;;;4.59;66.28;101317.10;1684763;85;21895;-52
2021/03/01 00:22:04;;;;;;;38.60;19.92;;;;;;;4.58;66.21;101320.77;1688950;83;21334;-51
2021/03/01 00:25:10;;;;;;;34.35;16.15;;;;;;;4.59;66.27;101325.23;1693494;84;21215;-52
2021/03/01 00:28:17;;;;;;;34.15;16.87;;;;;;;4.59;66.19;101321.17;1682298;84;21422;-52
2021/03/01 00:31:23;;;;;;;30.88;16.52;;;;;;;4.56;66.21;101325.47;1675982;85;21192;-52
2021/03/01 00:34:29;;;;;;;31.52;16.32;;;;;;;4.53;66.26;101322.95;1675591;85;21220;-51
2021/03/01 00:37:35;;;;;;;25.85;15.28;;;;;;;4.49;66.20;101321.95;1675839;84;21386;-52
2021/03/01 00:40:40;;;;;;;20.45;12.35;;;;;;;4.45;66.41;101321.81;1675572;85;21354;-52
2021/03/01 00:43:46;;;;;;;26.57;14.87;;;;;;;4.43;66.42;101331.42;1675629;84;21453;-50
2021/03/01 00:46:52;;;;;;;22.98;13.88;;;;;;;4.41;66.43;101336.08;1675361;84;21188;-51
2021/03/01 00:49:58;;;;;;;24.00;14.25;;;;;;;4.41;66.73;101327.95;1675830;85;21338;-51
2021/03/01 00:53:03;;;;;;;24.12;13.62;;;;;;;4.43;66.76;101334.13;1682549;84;21224;-50
2021/03/01 00:56:09;;;;;;;19.27;12.73;;;;;;;4.43;66.88;101334.13;1676267;85;21216;-54
2021/03/01 00:59:15;;;;;;;17.27;11.08;;;;;;;4.43;66.76;101340.03;1676369;85;21262;-53
2021/03/01 01:02:28;;;;;;;18.02;11.55;;;;;;;4.38;66.66;101344.44;1676058;84;21283;-51
2021/03/01 01:05:51;;;;;;;16.37;11.10;;;;;;;4.29;66.81;101339.71;1676525;85;21223;-50
2021/03/01 01:08:57;;;;;;;15.68;10.90;;;;;;;4.32;67.09;101352.16;1703385;83;21853;-50
2021/03/01 01:12:02;;;;;;;15.85;9.93;;;;;;;4.34;67.08;101351.05;1732028;81;21377;-51
2021/03/01 01:15:07;;;;;;;17.80;13.00;;;;;;;4.38;67.21;101347.16;1694574;84;21324;-52
2021/03/01 01:18:13;;;;;;;19.40;12.45;;;;;;;4.41;67.06;101352.34;1701357;81;21238;-50
2021/03/01 01:21:20;;;;;;;21.48;13.08;;;;;;;4.46;66.92;101347.45;1679996;84;21185;-50
2021/03/01 01:24:24;;;;;;;20.75;14.23;;;;;;;4.49;66.75;101359.91;1698012;83;21227;-50
2021/03/01 01:27:30;;;;;;;20.40;13.25;;;;;;;4.48;66.54;101358.19;1692583;83;21289;-52
2021/03/01 01:30:36;;;;;;;16.90;11.75;;;;;;;4.44;66.67;101358.02;1691957;85;21218;-51
2021/03/01 01:33:42;;;;;;;21.75;13.60;;;;;;;4.41;66.80;101349.63;1686591;83;21260;-52
2021/03/01 01:36:47;;;;;;;23.73;16.48;;;;;;;4.40;67.00;101355.17;1687833;83;21369;-52
2021/03/01 01:39:53;;;;;;;28.67;17.27;;;;;;;4.40;67.04;101354.70;1683879;85;21224;-50
2021/03/01 01:42:59;;;;;;;26.12;15.53;;;;;;;4.39;66.92;101357.00;1683696;84;21247;-53
2021/03/01 01:46:04;;;;;;;26.85;15.98;;;;;;;4.36;66.85;101358.59;1687586;85;21223;-52
2021/03/01 01:49:10;;;;;;;25.77;16.70;;;;;;;4.36;66.90;101370.79;1683427;84;21737;-49
2021/03/01 01:52:16;;;;;;;22.00;15.58;;;;;;;4.35;66.81;101367.71;1687967;83;21385;-50
2021/03/01 01:55:23;;;;;;;17.30;13.00;;;;;;;4.33;66.77;101367.43;1683925;85;21740;-52
2021/03/01 01:58:29;;;;;;;22.07;15.30;;;;;;;4.30;66.72;101367.18;1688203;83;21425;-50
2021/03/01 02:01:33;;;;;;;24.87;16.20;;;;;;;4.27;66.84;101360.62;1684372;85;21231;-52
2021/03/01 02:04:51;;;;;;;20.82;15.63;;;;;;;4.28;66.98;101368.28;1688321;84;21373;-51
2021/03/01 02:08:04;;;;;;;23.95;16.62;;;;;;;4.27;66.91;101376.02;1683830;84;21402;-51
2021/03/01 02:11:25;;;;;;;25.43;16.50;;;;;;;4.25;67.10;101365.28;1635506;87;21248;-50
2021/03/01 02:14:41;;;;;;;24.25;16.07;;;;;;;4.29;67.24;101373.59;1657041;84;21260;-50
2021/03/01 02:17:47;;;;;;;26.02;16.12;;;;;;;4.27;67.08;101379.60;1654489;85;21307;-52
2021/03/01 02:20:54;;;;;;;23.30;15.35;;;;;;;4.24;67.09;101385.25;1654506;87;21360;-50
2021/03/01 02:24:00;;;;;;;19.45;13.55;;;;;;;4.23;67.35;101390.27;1654411;85;21260;-52
2021/03/01 02:27:06;;;;;;;21.20;14.07;;;;;;;4.24;67.48;101392.50;1655510;85;21268;-51
2021/03/01 02:30:32;;;;;;;22.07;12.70;;;;;;;4.25;67.57;101396.45;1656191;85;21311;-50
2021/03/01 02:33:48;;;;;;;18.42;13.43;;;;;;;4.29;67.62;101402.05;1654550;85;21816;-51
2021/03/01 02:37:04;;;;;;;14.87;12.00;;;;;;;4.27;67.57;101406.70;1654718;85;21197;-51
2021/03/01 02:40:12;;;;;;;16.40;11.68;;;;;;;4.27;67.61;101404.47;1654641;85;21258;-51
2021/03/01 02:43:18;;;;;;;91.08;54.55;;;;;;;4.30;67.65;101409.19;1654553;85;21316;-50
2021/03/01 02:46:25;;;;;;;104.78;61.42;;;;;;;4.34;67.49;101409.84;1654323;87;21561;-51
2021/03/01 02:49:31;;;;;;;68.02;41.80;;;;;;;4.36;67.21;101419.58;1654673;86;21280;-51
2021/03/01 02:52:37;;;;;;;83.12;49.73;;;;;;;4.32;67.12;101423.98;1655293;85;21225;-51
2021/03/01 02:55:43;;;;;;;81.90;49.73;;;;;;;4.32;67.22;101430.76;1654707;86;21272;-51
2021/03/01 02:58:50;;;;;;;50.38;31.97;;;;;;;4.33;67.17;101425.22;1654505;85;22111;-53
2021/03/01 03:01:57;;;;;;;23.42;15.53;;;;;;;4.35;67.15;101432.77;1654472;85;21283;-50
2021/03/01 03:05:03;;;;;;;16.62;12.00;;;;;;;4.33;67.08;101440.13;1656696;85;21256;-51
2021/03/01 03:08:08;;;;;;;17.70;11.80;;;;;;;4.34;66.99;101443.72;1655147;84;21249;-50
2021/03/01 03:11:14;;;;;;;14.43;10.40;;;;;;;4.33;66.98;101449.62;1669351;82;21326;-52
2021/03/01 03:14:24;;;;;;;12.55;10.13;;;;;;;4.30;66.90;101449.84;1687842;85;21373;-53
2021/03/01 03:17:30;;;;;;;16.02;11.15;;;;;;;4.29;67.02;101448.13;1686523;83;21251;-51
2021/03/01 03:20:35;;;;;;;14.43;11.10;;;;;;;4.31;67.04;101455.62;1676648;85;21215;-52
2021/03/01 03:23:41;;;;;;;22.62;14.13;;;;;;;4.31;66.99;101455.62;1676699;84;21283;-51
2021/03/01 03:26:46;;;;;;;31.87;17.35;;;;;;;4.29;67.06;101454.89;1676365;84;21227;-51
2021/03/01 03:29:52;;;;;;;42.08;22.95;;;;;;;4.28;67.04;101456.36;1676394;85;21567;-52
2021/03/01 03:32:59;;;;;;;43.70;26.37;;;;;;;4.29;67.04;101460.31;1676072;84;21204;-52
2021/03/01 03:36:05;;;;;;;40.43;22.90;;;;;;;4.30;67.02;101470.64;1688403;84;21326;-51
2021/03/01 03:39:19;;;;;;;38.50;22.80;;;;;;;4.30;67.06;101472.00;1690006;83;21601;-52
2021/03/01 03:42:26;;;;;;;37.30;22.17;;;;;;;4.29;67.04;101475.70;1671298;84;21567;-51
2021/03/01 03:45:32;;;;;;;28.50;17.98;;;;;;;4.27;67.07;101479.00;1675248;85;21215;-52
2021/03/01 03:48:38;;;;;;;22.98;15.63;;;;;;;4.26;67.09;101479.98;1674918;84;21422;-52
2021/03/01 03:51:43;;;;;;;24.72;16.65;;;;;;;4.25;67.04;101470.98;1675896;84;21876;-54
2021/03/01 03:54:51;;;;;;;25.60;17.25;;;;;;;4.29;67.00;101477.94;1675790;85;21264;-52
2021/03/01 03:58:06;;;;;;;28.75;17.60;;;;;;;4.32;66.91;101477.71;1675762;84;21370;-52
2021/03/01 04:01:10;;;;;;;24.87;16.73;;;;;;;4.31;66.88;101476.47;1676256;85;21704;-52
2021/03/01 04:04:15;;;;;;;25.52;16.52;;;;;;;4.30;66.86;101473.36;1659653;85;21880;-51
2021/03/01 04:07:20;;;;;;;24.67;14.87;;;;;;;4.24;66.81;101478.74;1682458;84;21234;-50
2021/03/01 04:10:26;;;;;;;24.07;14.93;;;;;;;4.22;67.05;101489.30;1666376;85;21941;-50
2021/03/01 04:13:34;;;;;;;28.75;16.62;;;;;;;4.24;67.15;101494.13;1706927;83;21240;-49
2021/03/01 04:16:39;;;;;;;24.95;15.88;;;;;;;4.27;67.08;101494.78;1707483;83;21785;-50
2021/03/01 04:19:46;;;;;;;21.73;14.70;;;;;;;4.31;66.95;101501.70;1678985;83;21207;-50
2021/03/01 04:22:51;;;;;;;21.23;11.43;;;;;;;4.33;66.80;101501.11;1686224;84;21238;-49
2021/03/01 04:25:56;;;;;;;14.95;9.63;;;;;;;4.32;66.57;101519.72;1687793;85;21260;-52
2021/03/01 04:29:03;;;;;;;21.90;14.20;;;;;;;4.30;66.21;101520.31;1657150;85;21389;-50
2021/03/01 04:32:10;;;;;;;13.15;9.63;;;;;;;4.30;65.72;101527.09;1657664;86;21273;-50
2021/03/01 04:35:16;;;;;;;8.63;6.58;;;;;;;4.30;65.71;101527.56;1658427;85;21373;-52
2021/03/01 04:38:21;;;;;;;9.08;6.05;;;;;;;4.28;65.23;101525.47;1657695;86;22306;-51
2021/03/01 04:41:26;;;;;;;7.47;5.60;;;;;;;4.26;65.04;101526.94;1659502;84;21231;-50
2021/03/01 04:44:32;;;;;;;11.30;5.80;;;;;;;4.29;65.10;101532.14;1657173;85;21372;-51
2021/03/01 04:47:38;;;;;;;6.08;4.62;;;;;;;4.31;64.89;101536.94;1658385;85;21674;-50
2021/03/01 04:50:45;;;;;;;5.55;4.35;;;;;;;4.29;64.68;101548.41;1631709;88;21236;-51
2021/03/01 04:53:51;;;;;;;6.95;4.92;;;;;;;4.27;64.65;101548.98;1632247;86;21251;-50
2021/03/01 04:56:57;;;;;;;6.92;4.40;;;;;;;4.31;64.64;101558.63;1631951;86;21265;-51
2021/03/01 05:00:03;;;;;;;7.10;4.42;;;;;;;4.31;64.50;101552.36;1632857;87;21207;-51
2021/03/01 05:03:11;;;;;;;6.87;4.80;;;;;;;4.33;64.57;101555.33;1631962;86;21265;-50
2021/03/01 05:06:17;;;;;;;6.78;5.00;;;;;;;4.41;64.59;101557.02;1634087;86;21235;-52
2021/03/01 05:09:22;;;;;;;6.92;4.53;;;;;;;4.45;64.58;101566.68;1632202;88;21253;-53
2021/03/01 05:12:28;;;;;;;6.15;4.10;;;;;;;4.47;64.31;101566.57;1660374;81;21416;-52
2021/03/01 05:15:34;;;;;;;4.78;3.55;;;;;;;4.49;63.79;101571.38;1641356;85;21230;-51
2021/03/01 05:18:41;;;;;;;4.62;3.30;;;;;;;4.48;62.90;101575.95;1657099;85;21424;-52
2021/03/01 05:21:48;;;;;;;4.10;2.60;;;;;;;4.50;62.45;101576.69;1648044;85;21228;-52
2021/03/01 05:24:53;;;;;;;3.83;2.50;;;;;;;4.53;61.86;101577.83;1620453;88;21234;-52
2021/03/01 05:27:58;;;;;;;4.25;2.92;;;;;;;4.56;61.47;101576.28;1657877;85;21384;-51
2021/03/01 05:31:03;;;;;;;3.65;2.55;;;;;;;4.62;61.14;101583.09;1647943;87;21260;-51
2021/03/01 05:34:08;;;;;;;4.42;2.87;;;;;;;4.68;60.65;101594.86;1620166;88;21322;-51
2021/03/01 05:37:12;;;;;;;4.87;3.15;;;;;;;4.74;60.41;101594.92;1683123;83;21222;-51
2021/03/01 05:40:18;;;;;;;3.17;2.35;;;;;;;4.79;60.05;101602.25;1645084;87;21262;-51
2021/03/01 05:43:23;;;;;;;5.42;2.83;;;;;;;4.82;59.45;101610.17;1683735;85;21746;-50
2021/03/01 05:46:29;;;;;;;4.85;2.52;;;;;;;4.81;59.06;101614.72;1645780;85;21707;-50
2021/03/01 05:49:35;;;;;;;16.15;6.78;;;;;;;4.89;58.79;101619.59;1683183;85;21211;-50
2021/03/01 05:52:40;;;;;;;8.38;3.85;;;;;;;4.90;58.37;101624.91;1672027;84;21250;-51
2021/03/01 05:55:46;;;;;;;6.92;3.08;;;;;;;4.98;58.22;101633.36;1643798;87;21309;-52
2021/03/01 05:58:52;;;;;;;7.78;4.60;;;;;;;5.02;57.98;101643.52;1684377;83;21227;-51
2021/03/01 06:01:58;;;;;;;6.83;3.52;;;;;;;5.05;58.36;101647.36;1647548;85;21765;-50
2021/03/01 06:05:04;;;;;;;4.58;2.77;;;;;;;5.08;58.34;101643.06;1656874;85;21381;-50
2021/03/01 06:08:08;;;;;;;5.28;3.45;;;;;;;5.04;58.14;101651.06;1620297;87;21285;-51
2021/03/01 06:11:15;;;;;;;8.35;4.62;;;;;;;5.06;58.43;101654.04;1657005;86;21910;-50
2021/03/01 06:14:21;;;;;;;23.90;9.48;;;;;;;5.11;58.21;101655.94;1648703;83;21243;-52
2021/03/01 06:17:27;;;;;;;38.75;14.98;;;;;;;5.08;57.68;101667.02;1640857;87;21805;-51
2021/03/01 06:20:33;;;;;;;30.72;11.73;;;;;;;5.14;57.34;101666.57;1672690;85;21625;-52
2021/03/01 06:23:43;;;;;;;8.23;4.40;;;;;;;5.11;56.72;101669.98;1681711;85;21235;-50
2021/03/01 06:26:48;;;;;;;8.35;3.98;;;;;;;5.06;56.62;101676.26;1645098;85;21223;-50
2021/03/01 06:30:12;;;;;;;9.50;6.35;;;;;;;5.07;57.00;101679.34;1673981;85;21752;-50
2021/03/01 06:33:27;;;;;;;11.08;6.33;;;;;;;5.09;58.08;101681.47;1684898;82;21192;-50
2021/03/01 06:36:38;;;;;;;6.05;4.28;;;;;;;5.15;58.56;101690.52;1646641;86;21262;-51
2021/03/01 06:39:56;;;;;;;4.92;3.37;;;;;;;5.19;58.72;101692.02;1685773;84;21235;-51
2021/03/01 06:43:02;;;;;;;5.65;3.30;;;;;;;5.25;58.33;101690.25;1654314;86;21252;-50
2021/03/01 06:46:21;;;;;;;8.23;4.75;;;;;;;5.28;58.00;101688.16;1645372;85;21239;-50
2021/03/01 06:49:28;;;;;;;6.45;4.00;;;;;;;5.31;57.77;101688.45;1653654;85;21275;-50
2021/03/01 06:52:46;;;;;;;4.40;3.05;;;;;;;5.39;57.70;101681.98;1646418;87;21246;-49
2021/03/01 06:56:06;;;;;;;4.85;3.22;;;;;;;5.48;57.35;101678.58;1672769;85;21379;-50
2021/03/01 06:59:19;;;;;;;11.63;7.97;;;;;;;5.55;57.35;101686.67;1669708;85;21529;-51
2021/03/01 07:02:23;;;;;;;8.68;5.55;;;;;;;5.60;57.21;101688.53;1713616;82;21239;-50
2021/03/01 07:05:31;;;;;;;6.83;4.58;;;;;;;5.67;56.56;101688.00;1685457;84;21349;-50
2021/03/01 07:08:55;;;;;;;5.15;3.95;;;;;;;5.74;56.00;101696.56;1703372;83;21788;-51
2021/03/01 07:12:01;;;;;;;3.67;2.85;;;;;;;5.78;55.62;101697.58;1703896;83;21852;-50
2021/03/01 07:15:07;;;;;;;5.50;3.37;;;;;;;5.83;55.33;101714.45;1675572;82;21223;-51
2021/03/01 07:18:14;;;;;;;6.00;3.00;;;;;;;5.72;55.28;101714.82;1655135;84;21257;-50
2021/03/01 07:21:21;;;;;;;5.45;3.27;;;;;;;5.71;55.54;101719.38;1687567;83;21768;-51
2021/03/01 07:24:30;;;;;;;4.42;2.67;;;;;;;5.70;55.61;101724.92;1654306;85;21198;-51
2021/03/01 07:27:36;;;;;;;6.67;3.90;;;;;;;5.71;55.45;101730.72;1661538;85;21247;-50
2021/03/01 07:30:41;;;;;;;3.50;2.52;;;;;;;5.72;55.66;101732.48;1664974;84;21702;-51
2021/03/01 07:33:48;;;;;;;2.55;2.10;;;;;;;5.82;55.51;101733.55;1693294;83;21232;-50
2021/03/01 07:36:57;;;;;;;4.53;2.83;;;;;;;5.90;54.93;101740.17;1687750;83;21653;-51
2021/03/01 07:40:03;;;;;;;7.72;5.45;;;;;;;5.95;55.11;101749.34;1691418;84;21868;-50
2021/03/01 07:43:10;;;;;;;8.70;5.87;;;;;;;6.06;56.06;101745.34;1678090;84;21700;-50
2021/03/01 07:46:15;;;;;;;8.40;6.30;;;;;;;6.22;56.55;101746.42;1655400;84;21323;-50
2021/03/01 07:49:24;;;;;;;11.50;7.75;;;;;;;6.12;56.12;101754.39;1665834;85;21810;-49
2021/03/01 07:52:41;;;;;;;10.95;7.42;;;;;;;6.05;56.72;101751.77;1657440;84;21240;-49
2021/03/01 07:55:46;;;;;;;11.18;7.10;;;;;;;6.16;56.79;101751.84;1673402;84;21216;-50
2021/03/01 07:59:08;;;;;;;10.20;6.35;;;;;;;6.24;56.67;101756.21;1688802;83;21597;-51
2021/03/01 08:02:18;;;;;;;5.97;4.53;;;;;;;6.29;56.68;101759.46;1679816;85;21283;-50
2021/03/01 08:05:31;;;;;;;9.28;6.40;;;;;;;6.30;56.62;101763.91;1658976;84;21214;-50
2021/03/01 08:08:57;;;;;;;7.28;5.20;;;;;;;6.32;57.09;101772.83;1691102;83;21242;-50
2021/03/01 08:12:07;;;;;;;15.10;9.63;;;;;;;6.52;57.24;101773.54;1660687;85;21288;-51
2021/03/01 08:15:17;;;;;;;13.08;8.85;;;;;;;6.66;57.03;101772.52;1686949;83;21895;-51
2021/03/01 08:18:40;;;;;;;6.95;4.45;;;;;;;6.64;56.20;101778.55;1637955;85;21376;-50
2021/03/01 08:22:12;;;;;;;7.70;5.15;;;;;;;6.74;55.92;101780.44;1648204;85;21213;-50
2021/03/01 08:25:18;;;;;;;8.18;6.15;;;;;;;6.75;55.69;101779.48;1654573;85;21284;-52
2021/03/01 08:28:36;;;;;;;7.67;4.30;;;;;;;6.83;55.55;101785.20;1649834;85;21292;-50
2021/03/01 08:31:46;;;;;;;3.77;3.02;;;;;;;7.02;54.91;101792.33;1649427;85;21848;-52
2021/03/01 08:35:01;;;;;;;12.05;8.83;;;;;;;7.00;54.03;101792.93;1651194;86;21415;-53
2021/03/01 08:38:09;;;;;;;7.85;6.12;;;;;;;6.94;54.15;101800.22;1651499;85;21782;-55
2021/03/01 08:41:15;;;;;;;23.85;12.88;;;;;;;6.94;53.77;101802.94;1668884;85;21495;-50
2021/03/01 08:44:29;;;;;;;17.00;10.58;;;;;;;7.00;54.43;101810.63;1667238;84;21619;-51
2021/03/01 08:47:34;;;;;;;7.37;4.58;;;;;;;7.10;54.07;101811.62;1663212;85;21327;-52
2021/03/01 08:50:46;;;;;;;5.33;3.87;;;;;;;7.12;54.03;101811.55;1653676;85;21206;-52
2021/03/01 08:53:54;;;;;;;5.22;3.70;;;;;;;7.17;53.79;101812.02;1649024;86;21283;-51
2021/03/01 08:57:11;;;;;;;5.00;2.58;;;;;;;7.19;53.48;101813.66;1654375;86;21384;-53
2021/03/01 09:00:19;;;;;;;4.78;3.08;;;;;;;7.11;52.87;101822.92;1655837;85;21307;-52
2021/03/01 09:03:29;;;;;;;3.60;3.12;;;;;;;7.04;53.02;101825.72;1653672;85;21276;-52
2021/03/01 09:06:38;;;;;;;6.78;4.40;;;;;;;6.86;53.09;101823.55;1637896;85;21223;-52
2021/03/01 09:09:58;;;;;;;4.50;3.85;;;;;;;6.73;54.08;101831.78;1652315;85;21188;-52
2021/03/01 09:13:03;;;;;;;4.45;3.20;;;;;;;6.75;54.27;101832.55;1646132;87;21251;-53
2021/03/01 09:16:14;;;;;;;5.37;3.67;;;;;;;6.80;54.50;101828.95;1659088;84;21774;-52
2021/03/01 09:19:21;;;;;;;11.70;6.42;;;;;;;6.90;54.83;101838.17;1683213;84;21820;-53
2021/03/01 09:22:29;;;;;;;5.67;4.40;;;;;;;6.94;54.83;101834.25;1680077;84;21236;-51
2021/03/01 09:25:38;;;;;;;4.35;3.20;;;;;;;7.04;55.07;101847.51;1650784;87;21236;-50
2021/03/01 09:28:46;;;;;;;4.58;3.40;;;;;;;7.18;54.88;101852.75;1631944;86;21263;-51
2021/03/01 09:31:57;;;;;;;6.05;4.03;;;;;;;7.21;54.55;101845.73;1673591;84;21288;-50
2021/03/01 09:35:04;;;;;;;7.25;5.15;;;;;;;7.23;55.02;101850.55;1666981;86;21332;-50
2021/03/01 09:38:11;;;;;;;6.22;3.98;;;;;;;7.35;54.90;101841.93;1701487;83;21230;-49
2021/03/01 09:41:19;;;;;;;5.87;3.60;;;;;;;7.34;53.97;101846.50;1701143;84;21170;-50
2021/03/01 09:44:30;;;;;;;6.87;4.55;;;;;;;7.22;54.01;101850.67;1702756;83;21235;-50
2021/03/01 09:47:38;;;;;;;3.92;3.12;;;;;;;7.20;54.31;101856.72;1674412;84;21960;-50
2021/03/01 09:50:46;;;;;;;4.37;3.22;;;;;;;7.17;54.22;101856.95;1666164;84;21255;-50
2021/03/01 09:53:53;;;;;;;4.65;3.47;;;;;;;7.13;54.40;101854.11;1681148;85;21224;-51
2021/03/01 09:57:00;;;;;;;4.08;2.80;;;;;;;7.07;54.98;101855.95;1681685;83;21248;-52
2021/03/01 10:00:06;;;;;;;4.03;3.05;;;;;;;7.17;54.93;101859.20;1683265;83;22324;-52
2021/03/01 10:03:11;;;;;;;6.45;3.02;;;;;;;7.28;54.58;101859.23;1649242;85;21233;-50
2021/03/01 10:06:18;;;;;;;3.95;2.83;;;;;;;7.31;54.46;101857.63;1660213;85;21185;-51
2021/03/01 10:09:22;;;;;;;3.52;2.80;;;;;;;7.33;54.43;101854.30;1671853;85;21584;-51
2021/03/01 10:12:28;;;;;;;6.78;3.10;;;;;;;7.41;54.57;101862.75;1672907;84;21259;-51
2021/03/01 10:15:35;;;;;;;3.50;2.75;;;;;;;7.41;54.08;101853.22;1679090;85;21203;-51
2021/03/01 10:18:41;;;;;;;3.55;2.55;;;;;;;7.41;54.01;101859.15;1679708;82;21282;-54
2021/03/01 10:21:47;;;;;;;4.22;2.65;;;;;;;7.37;53.71;101859.88;1676031;85;21247;-51
2021/03/01 10:24:56;;;;;;;3.30;2.35;;;;;;;7.35;53.45;101852.83;1683382;85;21859;-51
2021/03/01 10:28:02;;;;;;;3.45;2.25;;;;;;;7.42;53.47;101848.13;1648605;85;21663;-52
2021/03/01 10:31:12;;;;;;;2.92;2.33;;;;;;;7.33;53.54;101848.86;1641773;87;21214;-51
2021/03/01 10:34:21;;;;;;;3.52;2.50;;;;;;;7.28;53.20;101848.34;1623747;88;21403;-50
2021/03/01 10:37:28;;;;;;;5.85;3.77;;;;;;;7.24;53.74;101846.86;1633862;87;21245;-50
2021/03/01 10:40:35;;;;;;;4.62;2.83;;;;;;;7.26;53.69;101847.59;1613921;88;21661;-51
2021/03/01 10:43:42;;;;;;;5.83;3.42;;;;;;;7.42;53.84;101839.95;1667366;84;21192;-51
2021/03/01 10:46:56;;;;;;;4.20;2.62;;;;;;;7.70;53.29;101838.66;1691666;83;21207;-51
2021/03/01 10:50:04;;;;;;;6.22;2.72;;;;;;;7.97;52.84;101840.55;1674300;85;21195;-51
2021/03/01 10:53:14;;;;;;;3.90;2.87;;;;;;;8.04;52.47;101840.92;1645665;85;21257;-49
2021/03/01 10:56:20;;;;;;;20.43;12.23;;;;;;;8.03;52.38;101840.52;1675129;84;21287;-51
2021/03/01 10:59:27;;;;;;;4.25;2.90;;;;;;;7.97;51.93;101846.48;1674298;85;21248;-52
2021/03/01 11:02:33;;;;;;;3.25;2.42;;;;;;;7.83;51.77;101851.69;1674180;84;21220;-51
2021/03/01 11:05:43;;;;;;;2.52;2.10;;;;;;;7.76;52.29;101847.70;1674217;84;21196;-52
2021/03/01 11:08:48;;;;;;;3.30;2.50;;;;;;;7.91;52.34;101841.05;1678754;83;21268;-52
2021/03/01 11:11:56;;;;;;;3.17;2.60;;;;;;;7.94;52.23;101839.91;1673168;84;21577;-50
2021/03/01 11:15:01;;;;;;;4.37;2.65;;;;;;;7.95;52.33;101835.70;1674019;84;21223;-50
2021/03/01 11:18:06;;;;;;;4.35;2.35;;;;;;;7.77;51.94;101833.59;1674409;84;21749;-51
2021/03/01 11:21:11;;;;;;;4.17;2.25;;;;;;;7.81;52.18;101830.98;1648173;84;21258;-52
2021/03/01 11:24:19;;;;;;;6.10;2.72;;;;;;;7.86;51.99;101824.66;1671804;84;21760;-52
2021/03/01 11:27:23;;;;;;;2.10;1.67;;;;;;;7.87;52.24;101826.39;1693957;83;21236;-51
2021/03/01 11:30:30;;;;;;;2.98;2.15;;;;;;;7.84;51.42;101822.55;1667822;85;21232;-51
2021/03/01 11:33:36;;;;;;;3.40;1.80;;;;;;;7.78;51.42;101832.11;1664423;84;21284;-51
2021/03/01 11:36:48;;;;;;;20.65;10.32;;;;;;;7.87;51.41;101828.62;1688192;83;21232;-51
2021/03/01 11:39:54;;;;;;;8.83;4.57;;;;;;;7.97;51.81;101826.03;1686956;84;21667;-51
2021/03/01 11:42:59;;;;;;;10.58;5.42;;;;;;;8.07;51.45;101831.13;1632735;86;21968;-51
2021/03/01 11:46:04;;;;;;;10.10;5.42;;;;;;;7.96;51.66;101831.13;1633001;88;21221;-52
2021/03/01 11:49:09;;;;;;;5.78;3.35;;;;;;;7.96;52.03;101836.58;1632744;87;21345;-54
2021/03/01 11:52:15;;;;;;;11.05;6.70;;;;;;;8.05;51.21;101839.43;1631767;86;21256;-51
2021/03/01 11:55:21;;;;;;;6.50;3.52;;;;;;;7.93;51.34;101832.73;1645949;86;21753;-52
2021/03/01 11:58:27;;;;;;;8.45;4.50;;;;;;;8.04;50.88;101824.55;1620409;87;21254;-53
2021/03/01 12:01:33;;;;;;;8.28;4.17;;;;;;;8.21;51.12;101824.91;1643460;87;22043;-54
2021/03/01 12:04:39;;;;;;;7.03;4.08;;;;;;;8.59;51.63;101829.95;1643190;87;21241;-52
2021/03/01 12:07:46;;;;;;;6.25;3.80;;;;;;;8.99;50.63;101832.44;1618267;87;21298;-53
2021/03/01 12:10:50;;;;;;;8.30;5.62;;;;;;;9.10;49.60;101839.22;1625128;87;21208;-53
2021/03/01 12:13:56;;;;;;;4.60;3.35;;;;;;;8.86;49.44;101842.14;1653705;86;21255;-52
2021/03/01 12:17:03;;;;;;;5.20;4.20;;;;;;;8.70;49.98;101842.22;1683529;82;21705;-53
2021/03/01 12:20:12;;;;;;;6.20;4.25;;;;;;;8.57;49.95;101850.56;1673924;82;21775;-54
2021/03/01 12:23:18;;;;;;;5.25;3.47;;;;;;;8.45;50.59;101849.34;1650457;85;21271;-54
2021/03/01 12:26:23;;;;;;;4.40;3.40;;;;;;;8.37;50.55;101841.77;1644117;87;21739;-53
2021/03/01 12:29:28;;;;;;;4.33;2.92;;;;;;;8.40;50.41;101844.27;1654695;85;21218;-54
2021/03/01 12:32:34;;;;;;;3.85;3.00;;;;;;;8.47;50.12;101849.58;1641751;85;21779;-53
2021/03/01 12:35:40;;;;;;;4.87;3.62;;;;;;;8.58;50.27;101850.04;1672359;85;21529;-53
2021/03/01 12:38:45;;;;;;;4.65;3.47;;;;;;;8.74;49.49;101842.31;1675844;84;21283;-53
2021/03/01 12:41:53;;;;;;;4.53;3.20;;;;;;;9.06;49.71;101848.66;1642969;87;21234;-53
2021/03/01 12:45:01;;;;;;;3.42;2.52;;;;;;;9.34;48.93;101848.55;1644176;87;21220;-53
2021/03/01 12:48:07;;;;;;;4.92;2.58;;;;;;;9.66;48.90;101842.48;1644308;85;21275;-54
2021/03/01 12:51:13;;;;;;;3.35;2.10;;;;;;;9.88;47.58;101845.94;1646500;87;21227;-53
2021/03/01 12:54:19;;;;;;;3.55;2.30;;;;;;;9.81;46.81;101848.88;1674694;84;21730;-55
2021/03/01 12:57:25;;;;;;;4.00;2.65;;;;;;;9.50;46.53;101852.53;1643618;85;21257;-52
2021/03/01 13:00:31;;;;;;;5.50;2.90;;;;;;;9.11;47.05;101851.88;1605644;87;21233;-53
2021/03/01 13:03:37;;;;;;;3.37;2.20;;;;;;;8.77;47.77;101852.97;1638104;85;21581;-53
2021/03/01 13:06:43;;;;;;;5.05;3.17;;;;;;;8.38;48.46;101854.92;1644769;85;21832;-53
2021/03/01 13:09:49;;;;;;;5.33;3.45;;;;;;;8.09;49.00;101853.17;1674299;84;21551;-53
2021/03/01 13:12:54;;;;;;;4.80;3.05;;;;;;;7.92;49.51;101859.61;1678934;84;21240;-53
2021/03/01 13:16:00;;;;;;;4.72;2.85;;;;;;;7.92;49.96;101856.40;1690876;84;21200;-54
2021/03/01 13:19:05;;;;;;;6.78;3.40;;;;;;;7.97;49.88;101850.57;1643857;85;21234;-54
2021/03/01 13:22:11;;;;;;;5.37;3.00;;;;;;;7.92;49.75;101851.43;1672207;83;21248;-53
2021/03/01 13:25:16;;;;;;;8.30;5.78;;;;;;;7.90;49.89;101849.31;1692121;83;21220;-55
2021/03/01 13:28:21;;;;;;;14.00;8.93;;;;;;;7.99;49.96;101854.05;1696913;83;21237;-53
2021/03/01 13:31:26;;;;;;;15.13;8.70;;;;;;;8.04;49.95;101855.40;1646384;84;21196;-52
2021/03/01 13:34:33;;;;;;;6.55;4.90;;;;;;;8.04;49.79;101857.28;1618444;87;21200;-53
2021/03/01 13:37:41;;;;;;;8.25;5.37;;;;;;;7.98;49.80;101859.11;1644826;85;21257;-53
2021/03/01 13:40:46;;;;;;;7.42;5.15;;;;;;;7.92;49.84;101860.97;1687545;84;21208;-54
2021/03/01 13:43:52;;;;;;;7.95;4.60;;;;;;;7.79;50.02;101861.57;1676374;83;21208;-53
2021/03/01 13:46:59;;;;;;;6.62;3.95;;;;;;;7.60;50.46;101860.81;1650626;85;21207;-53
2021/03/01 13:50:06;;;;;;;7.55;3.83;;;;;;;7.40;50.94;101860.99;1627538;85;21293;-53
2021/03/01 13:53:10;;;;;;;18.62;10.82;;;;;;;7.30;51.35;101865.44;1686642;83;21212;-53
2021/03/01 13:56:17;;;;;;;19.98;12.55;;;;;;;7.23;51.79;101866.89;1669842;85;22001;-51
2021/03/01 13:59:26;;;;;;;16.15;9.20;;;;;;;7.20;52.00;101871.70;1680928;84;21235;-54
2021/03/01 14:02:35;;;;;;;18.75;10.85;;;;;;;7.14;52.26;101866.73;1676608;85;21227;-53
2021/03/01 14:05:40;;;;;;;20.85;12.95;;;;;;;7.08;52.42;101869.45;1677164;84;21721;-53
2021/03/01 14:08:46;;;;;;;18.55;11.83;;;;;;;7.04;52.63;101871.16;1669353;85;21274;-53
2021/03/01 14:11:53;;;;;;;18.00;10.30;;;;;;;6.98;52.75;101875.20;1700556;83;21193;-53
2021/03/01 14:14:58;;;;;;;14.07;9.43;;;;;;;6.96;52.90;101881.25;1698615;84;21232;-54
2021/03/01 14:18:03;;;;;;;11.45;6.42;;;;;;;6.88;53.11;101883.69;1636257;86;21268;-53
2021/03/01 14:21:08;;;;;;;14.68;9.78;;;;;;;6.83;53.39;101879.11;1674388;83;22136;-52
2021/03/01 14:24:15;;;;;;;28.00;16.25;;;;;;;6.74;53.81;101881.13;1649957;84;21271;-53
2021/03/01 14:27:22;;;;;;;26.12;17.48;;;;;;;6.66;54.20;101889.52;1682057;84;21243;-53
2021/03/01 14:30:28;;;;;;;40.05;23.98;;;;;;;6.58;54.72;101891.42;1687608;85;21242;-52
2021/03/01 14:33:35;;;;;;;31.57;17.92;;;;;;;6.51;55.14;101895.59;1676254;83;21369;-54